createdAt,value
2018-04-01T00:00:08.535Z,10.40
2018-04-01T00:00:39.820Z,10.40
2018-04-01T00:01:11.094Z,10.30
2018-04-01T00:01:42.381Z,10.30
2018-04-01T00:02:13.677Z,10.30
2018-04-01T00:02:44.951Z,10.30
2018-04-01T00:03:16.246Z,10.30
2018-04-01T00:03:47.516Z,10.30
2018-04-01T00:04:18.803Z,10.30
2018-04-01T00:04:50.092Z,10.30
2018-04-01T00:05:21.376Z,10.30
2018-04-01T00:05:52.705Z,10.30
2018-04-01T00:06:23.986Z,10.30
2018-04-01T00:06:55.264Z,10.20
2018-04-01T00:07:26.546Z,10.20
2018-04-01T00:07:57.829Z,10.20
2018-04-01T00:08:29.107Z,10.20
2018-04-01T00:09:00.419Z,10.10
2018-04-01T00:09:31.696Z,10.20
2018-04-01T00:10:02.975Z,10.10
2018-04-01T00:10:34.286Z,10.10
2018-04-01T00:11:05.562Z,10.10
2018-04-01T00:11:36.846Z,10.20
2018-04-01T00:12:08.107Z,10.10
2018-04-01T00:12:39.388Z,10.10
2018-04-01T00:13:10.671Z,10.00
2018-04-01T00:13:41.958Z,10.00
2018-04-01T00:14:13.235Z,10.00
2018-04-01T00:14:44.550Z,10.10
2018-04-01T00:15:15.851Z,10.10
2018-04-01T00:15:47.119Z,10.10
2018-04-01T00:16:18.439Z,10.10
2018-04-01T00:16:49.716Z,10.00
2018-04-01T00:17:21.004Z,10.10
2018-04-01T00:17:52.274Z,10.10
2018-04-01T00:18:23.589Z,10.00
2018-04-01T00:18:54.871Z,10.00
2018-04-01T00:19:26.153Z,10.00
2018-04-01T00:19:57.437Z,10.00
2018-04-01T00:20:28.723Z,9.90
2018-04-01T00:21:00.036Z,10.00
2018-04-01T00:21:31.318Z,10.00
2018-04-01T00:22:02.601Z,9.90
2018-04-01T00:22:33.886Z,10.00
2018-04-01T00:23:05.207Z,10.00
2018-04-01T00:23:36.490Z,10.00
2018-04-01T00:24:07.863Z,10.00
2018-04-01T00:24:39.167Z,10.00
2018-04-01T00:25:10.432Z,10.00
2018-04-01T00:25:41.694Z,10.00
2018-04-01T00:26:12.987Z,9.90
2018-04-01T00:26:44.266Z,10.00
2018-04-01T00:27:15.554Z,9.90
2018-04-01T00:27:46.834Z,9.90
2018-04-01T00:28:18.120Z,9.90
2018-04-01T00:28:49.402Z,9.90
2018-04-01T00:29:20.676Z,10.00
2018-04-01T00:29:51.961Z,9.90
2018-04-01T00:30:23.241Z,9.90
2018-04-01T00:30:54.514Z,9.90
2018-04-01T00:31:25.785Z,9.90
2018-04-01T00:31:57.087Z,10.00
2018-04-01T00:32:28.383Z,10.00
2018-04-01T00:32:59.677Z,10.00
2018-04-01T00:33:30.951Z,9.90
2018-04-01T00:34:02.241Z,9.90
2018-04-01T00:34:33.519Z,10.00
2018-04-01T00:35:04.816Z,9.90
2018-04-01T00:35:36.105Z,10.00
2018-04-01T00:36:07.371Z,9.90
2018-04-01T00:36:38.643Z,9.90
2018-04-01T00:37:09.924Z,10.00
2018-04-01T00:37:41.202Z,9.90
2018-04-01T00:38:12.531Z,9.90
2018-04-01T00:38:43.813Z,9.90
2018-04-01T00:39:15.100Z,9.90
2018-04-01T00:39:46.371Z,9.90
2018-04-01T00:40:17.662Z,10.00
2018-04-01T00:40:48.933Z,9.90
2018-04-01T00:41:20.195Z,9.90
2018-04-01T00:41:51.482Z,10.00
2018-04-01T00:42:22.764Z,9.90
2018-04-01T00:42:54.045Z,10.00
2018-04-01T00:43:25.316Z,9.90
2018-04-01T00:43:56.587Z,9.90
2018-04-01T00:44:27.880Z,10.00
2018-04-01T00:44:59.187Z,10.00
2018-04-01T00:45:30.497Z,10.00
2018-04-01T00:46:01.783Z,10.00
2018-04-01T00:46:33.061Z,9.90
2018-04-01T00:47:04.342Z,10.00
2018-04-01T00:47:35.625Z,10.00
2018-04-01T00:48:06.907Z,9.90
2018-04-01T00:48:38.190Z,10.00
2018-04-01T00:49:09.482Z,9.90
2018-04-01T00:49:40.765Z,9.90
2018-04-01T00:50:12.034Z,9.90
2018-04-01T00:50:43.324Z,9.90
2018-04-01T00:51:14.618Z,9.90
2018-04-01T00:51:45.907Z,10.00
2018-04-01T00:52:17.198Z,9.90
2018-04-01T00:52:48.465Z,9.90
2018-04-01T00:53:19.754Z,9.90
2018-04-01T00:53:51.049Z,10.00
2018-04-01T00:54:22.318Z,9.90
2018-04-01T00:54:53.590Z,10.00
2018-04-01T00:55:24.855Z,9.90
2018-04-01T00:55:56.139Z,9.90
2018-04-01T00:56:27.422Z,9.90
2018-04-01T00:56:58.703Z,9.90
2018-04-01T00:57:29.990Z,10.00
2018-04-01T00:58:01.292Z,9.90
2018-04-01T00:58:32.580Z,9.90
2018-04-01T00:59:03.867Z,9.90
2018-04-01T00:59:35.147Z,9.90
2018-04-01T01:00:06.425Z,9.90
2018-04-01T01:00:37.687Z,10.00
2018-04-01T01:01:08.965Z,9.90
2018-04-01T01:01:40.244Z,10.00
2018-04-01T01:02:11.524Z,10.00
2018-04-01T01:02:42.805Z,10.00
2018-04-01T01:03:14.096Z,9.90
2018-04-01T01:03:45.403Z,9.90
2018-04-01T01:04:16.681Z,9.90
2018-04-01T01:04:47.961Z,10.00
2018-04-01T01:05:19.239Z,10.00
2018-04-01T01:05:50.505Z,9.90
2018-04-01T01:06:21.790Z,10.00
2018-04-01T01:06:53.071Z,10.00
2018-04-01T01:12:14.685Z,9.80
2018-04-01T01:12:46.001Z,9.90
2018-04-01T01:13:17.306Z,9.90
2018-04-01T01:13:48.598Z,9.90
2018-04-01T01:14:19.881Z,9.90
2018-04-01T01:14:51.153Z,9.90
2018-04-01T01:15:22.422Z,9.90
2018-04-01T01:15:53.691Z,9.90
2018-04-01T01:16:24.955Z,9.90
2018-04-01T01:16:56.245Z,9.90
2018-04-01T01:17:27.519Z,9.90
2018-04-01T01:17:58.822Z,9.80
2018-04-01T01:18:30.085Z,9.90
2018-04-01T01:19:01.357Z,9.90
2018-04-01T01:19:32.635Z,9.90
2018-04-01T01:20:03.907Z,9.80
2018-04-01T01:20:35.175Z,9.80
2018-04-01T01:21:06.462Z,9.80
2018-04-01T01:21:37.761Z,9.90
2018-04-01T01:22:09.042Z,9.80
2018-04-01T01:22:40.345Z,9.90
2018-04-01T01:23:11.614Z,9.80
2018-04-01T01:23:42.905Z,9.90
2018-04-01T01:24:14.173Z,9.80
2018-04-01T01:24:45.445Z,9.80
2018-04-01T01:25:16.735Z,9.90
2018-04-01T01:25:48.018Z,9.80
2018-04-01T01:26:19.297Z,9.80
2018-04-01T01:26:50.573Z,9.80
2018-04-01T01:27:21.853Z,9.80
2018-04-01T01:27:53.158Z,9.90
2018-04-01T01:28:24.433Z,9.80
2018-04-01T01:28:55.715Z,9.80
2018-04-01T01:29:27.001Z,9.80
2018-04-01T01:29:58.278Z,9.80
2018-04-01T01:30:29.579Z,9.80
2018-04-01T01:31:00.874Z,9.80
2018-04-01T01:31:32.175Z,9.80
2018-04-01T01:32:03.441Z,9.70
2018-04-01T01:32:34.728Z,9.70
2018-04-01T01:33:06.026Z,9.70
2018-04-01T01:33:37.318Z,9.70
2018-04-01T01:34:08.615Z,9.80
2018-04-01T01:34:39.893Z,9.70
2018-04-01T01:35:11.172Z,9.70
2018-04-01T01:35:42.455Z,9.80
2018-04-01T01:36:13.730Z,9.70
2018-04-01T01:36:45.010Z,9.70
2018-04-01T01:37:16.324Z,9.70
2018-04-01T01:37:47.597Z,9.70
2018-04-01T01:38:18.874Z,9.70
2018-04-01T01:38:50.134Z,9.70
2018-04-01T01:39:21.412Z,9.60
2018-04-01T01:39:52.681Z,9.70
2018-04-01T01:40:23.946Z,9.60
2018-04-01T01:40:55.217Z,9.60
2018-04-01T01:41:26.511Z,9.70
2018-04-01T01:41:57.791Z,9.70
2018-04-01T01:42:29.093Z,9.70
2018-04-01T01:43:00.371Z,9.70
2018-04-01T01:43:31.665Z,9.70
2018-04-01T01:44:02.975Z,9.60
2018-04-01T01:44:34.261Z,9.60
2018-04-01T01:45:05.561Z,9.70
2018-04-01T01:45:36.851Z,9.60
2018-04-01T01:46:08.155Z,9.60
2018-04-01T01:46:39.458Z,9.70
2018-04-01T01:47:10.760Z,9.60
2018-04-01T01:47:42.024Z,9.60
2018-04-01T01:48:13.398Z,9.70
2018-04-01T01:48:44.685Z,9.60
2018-04-01T01:49:15.955Z,9.60
2018-04-01T01:49:47.235Z,9.60
2018-04-01T01:50:18.513Z,9.70
2018-04-01T01:50:49.815Z,9.60
2018-04-01T01:51:21.127Z,9.60
2018-04-01T01:51:52.417Z,9.60
2018-04-01T01:52:23.697Z,9.60
2018-04-01T01:52:54.968Z,9.70
2018-04-01T01:53:26.297Z,9.60
2018-04-01T01:53:57.599Z,9.70
2018-04-01T01:54:28.907Z,9.60
2018-04-01T01:55:00.228Z,9.70
2018-04-01T01:55:31.533Z,9.60
2018-04-01T01:56:02.840Z,9.80
2018-04-01T01:56:34.135Z,9.70
2018-04-01T01:57:05.458Z,9.70
2018-04-01T01:57:36.743Z,9.70
2018-04-01T01:58:08.062Z,9.70
2018-04-01T01:58:39.341Z,9.70
2018-04-01T01:59:10.637Z,9.70
2018-04-01T01:59:41.937Z,9.80
2018-04-01T02:00:13.240Z,9.80
2018-04-01T02:00:44.573Z,9.70
2018-04-01T02:01:15.877Z,9.80
2018-04-01T02:01:47.143Z,9.70
2018-04-01T02:02:18.427Z,9.70
2018-04-01T02:02:49.731Z,9.70
2018-04-01T02:03:21.024Z,9.70
2018-04-01T02:03:52.363Z,9.70
2018-04-01T02:04:23.661Z,9.70
2018-04-01T02:04:54.935Z,9.70
2018-04-01T02:05:26.229Z,9.70
2018-04-01T02:05:57.519Z,9.80
2018-04-01T02:06:28.809Z,9.70
2018-04-01T02:07:00.085Z,9.80
2018-04-01T02:07:31.372Z,9.70
2018-04-01T02:08:02.656Z,9.70
2018-04-01T02:08:33.945Z,9.80
2018-04-01T02:09:05.211Z,9.70
2018-04-01T02:09:36.515Z,9.80
2018-04-01T02:10:07.771Z,9.80
2018-04-01T02:10:39.113Z,9.70
2018-04-01T02:11:10.419Z,9.70
2018-04-01T02:11:41.741Z,9.70
2018-04-01T02:12:13.035Z,9.70
2018-04-01T02:12:44.333Z,9.70
2018-04-01T02:13:15.631Z,9.70
2018-04-01T02:13:46.933Z,9.70
2018-04-01T02:14:18.222Z,9.70
2018-04-01T02:14:49.534Z,9.80
2018-04-01T02:15:20.833Z,9.70
2018-04-01T02:15:52.113Z,9.70
2018-04-01T02:16:23.413Z,9.70
2018-04-01T02:16:54.703Z,9.70
2018-04-01T02:17:25.995Z,9.70
2018-04-01T02:17:57.286Z,9.60
2018-04-01T02:18:28.565Z,9.70
2018-04-01T02:18:59.853Z,9.70
2018-04-01T02:19:31.133Z,9.60
2018-04-01T02:20:02.425Z,9.70
2018-04-01T02:20:33.710Z,9.70
2018-04-01T02:21:04.985Z,9.70
2018-04-01T02:21:36.289Z,9.70
2018-04-01T02:22:07.580Z,9.70
2018-04-01T02:22:38.873Z,9.60
2018-04-01T02:23:10.159Z,9.70
2018-04-01T02:23:41.477Z,9.70
2018-04-01T02:24:12.806Z,9.70
2018-04-01T02:24:44.092Z,9.70
2018-04-01T02:25:15.384Z,9.60
2018-04-01T02:25:46.678Z,9.60
2018-04-01T02:26:17.955Z,9.60
2018-04-01T02:26:49.237Z,9.60
2018-04-01T02:27:20.524Z,9.60
2018-04-01T02:27:51.834Z,9.60
2018-04-01T02:28:23.117Z,9.60
2018-04-01T02:28:54.400Z,9.60
2018-04-01T02:29:25.716Z,9.60
2018-04-01T02:29:57.023Z,9.50
2018-04-01T02:30:28.300Z,9.60
2018-04-01T02:30:59.584Z,9.60
2018-04-01T02:31:30.935Z,9.50
2018-04-01T02:32:02.172Z,9.50
2018-04-01T02:32:33.454Z,9.50
2018-04-01T02:33:04.776Z,9.50
2018-04-01T02:33:36.078Z,9.50
2018-04-01T02:34:07.355Z,9.60
2018-04-01T02:34:38.650Z,9.50
2018-04-01T02:35:09.971Z,9.40
2018-04-01T02:35:41.290Z,9.40
2018-04-01T02:36:12.560Z,9.40
2018-04-01T02:36:43.824Z,9.40
2018-04-01T02:37:15.095Z,9.40
2018-04-01T02:37:46.346Z,9.40
2018-04-01T02:38:17.624Z,9.40
2018-04-01T02:38:48.909Z,9.30
2018-04-01T02:39:20.194Z,9.40
2018-04-01T02:39:51.468Z,9.30
2018-04-01T02:40:22.766Z,9.30
2018-04-01T02:40:54.044Z,9.20
2018-04-01T02:41:25.305Z,9.20
2018-04-01T02:41:56.576Z,9.20
2018-04-01T02:42:27.881Z,9.20
2018-04-01T02:42:59.164Z,9.20
2018-04-01T02:43:30.432Z,9.20
2018-04-01T02:44:01.742Z,9.20
2018-04-01T02:44:33.026Z,9.20
2018-04-01T02:45:04.330Z,9.20
2018-04-01T02:45:35.613Z,9.10
2018-04-01T02:46:06.899Z,9.20
2018-04-01T02:46:38.220Z,9.10
2018-04-01T02:47:09.514Z,9.20
2018-04-01T02:47:40.817Z,9.10
2018-04-01T02:48:12.086Z,9.10
2018-04-01T02:48:43.387Z,9.10
2018-04-01T02:49:14.656Z,9.10
2018-04-01T02:49:45.971Z,9.10
2018-04-01T02:50:17.243Z,9.10
2018-04-01T02:50:48.528Z,9.10
2018-04-01T02:51:19.826Z,9.20
2018-04-01T02:51:51.128Z,9.10
2018-04-01T02:52:28.413Z,9.00
2018-04-01T02:52:59.688Z,9.00
2018-04-01T02:53:30.977Z,9.10
2018-04-01T02:54:02.277Z,9.00
2018-04-01T02:54:33.551Z,9.10
2018-04-01T02:55:04.848Z,9.10
2018-04-01T02:55:36.129Z,9.10
2018-04-01T02:56:07.411Z,9.10
2018-04-01T02:56:38.706Z,9.20
2018-04-01T02:57:09.977Z,9.10
2018-04-01T02:57:41.254Z,9.10
2018-04-01T02:58:12.535Z,9.10
2018-04-01T02:58:43.824Z,9.00
2018-04-01T02:59:15.112Z,9.10
2018-04-01T02:59:46.385Z,9.10
2018-04-01T03:00:17.693Z,9.20
2018-04-01T03:00:48.964Z,9.20
2018-04-01T03:01:20.242Z,9.10
2018-04-01T03:01:51.554Z,9.20
2018-04-01T03:02:22.844Z,9.10
2018-04-01T03:02:54.114Z,9.10
2018-04-01T03:03:25.460Z,9.10
2018-04-01T03:03:56.803Z,9.10
2018-04-01T03:04:28.107Z,9.10
2018-04-01T03:04:59.394Z,9.10
2018-04-01T03:05:30.674Z,9.00
2018-04-01T03:06:01.949Z,9.10
2018-04-01T03:06:33.242Z,9.00
2018-04-01T03:07:04.522Z,9.10
2018-04-01T03:07:35.813Z,9.00
2018-04-01T03:08:07.072Z,9.10
2018-04-01T03:08:38.367Z,9.00
2018-04-01T03:09:09.665Z,9.10
2018-04-01T03:09:40.933Z,9.20
2018-04-01T03:10:12.235Z,9.10
2018-04-01T03:10:43.536Z,9.10
2018-04-01T03:11:14.814Z,9.10
2018-04-01T03:11:46.087Z,9.10
2018-04-01T03:12:17.405Z,9.10
2018-04-01T03:12:48.677Z,9.00
2018-04-01T03:13:19.982Z,9.00
2018-04-01T03:13:51.265Z,9.10
2018-04-01T03:14:22.552Z,9.10
2018-04-01T03:14:53.861Z,9.10
2018-04-01T03:15:25.139Z,9.10
2018-04-01T03:15:56.409Z,9.00
2018-04-01T03:16:27.690Z,9.00
2018-04-01T03:16:58.953Z,8.90
2018-04-01T03:17:30.233Z,8.90
2018-04-01T03:18:01.536Z,8.90
2018-04-01T03:18:32.807Z,8.80
2018-04-01T03:19:04.089Z,9.00
2018-04-01T03:19:35.363Z,9.00
2018-04-01T03:20:06.646Z,8.90
2018-04-01T03:20:37.922Z,8.80
2018-04-01T03:21:09.194Z,8.80
2018-04-01T03:21:40.481Z,8.80
2018-04-01T03:22:11.759Z,8.80
2018-04-01T03:22:43.035Z,8.70
2018-04-01T03:23:14.298Z,8.80
2018-04-01T03:23:45.596Z,8.70
2018-04-01T03:24:16.870Z,8.70
2018-04-01T03:24:48.162Z,8.70
2018-04-01T03:25:19.427Z,8.70
2018-04-01T03:25:50.689Z,8.70
2018-04-01T03:26:21.950Z,8.70
2018-04-01T03:26:53.233Z,8.70
2018-04-01T03:27:24.512Z,8.70
2018-04-01T03:27:55.851Z,8.80
2018-04-01T03:28:27.138Z,8.60
2018-04-01T03:28:58.401Z,8.70
2018-04-01T03:29:29.668Z,8.70
2018-04-01T03:30:00.973Z,8.70
2018-04-01T03:30:32.242Z,8.70
2018-04-01T03:31:03.524Z,8.70
2018-04-01T03:31:34.809Z,8.70
2018-04-01T03:32:06.087Z,8.80
2018-04-01T03:32:37.382Z,8.70
2018-04-01T03:33:08.653Z,8.80
2018-04-01T03:33:39.933Z,8.70
2018-04-01T03:34:11.192Z,8.70
2018-04-01T03:34:42.470Z,8.60
2018-04-01T03:35:13.754Z,8.70
2018-04-01T03:35:45.081Z,8.40
2018-04-01T03:36:16.390Z,8.40
2018-04-01T03:36:47.689Z,8.50
2018-04-01T03:37:18.972Z,8.40
2018-04-01T03:37:50.235Z,8.40
2018-04-01T03:38:21.522Z,8.40
2018-04-01T03:38:52.809Z,8.40
2018-04-01T03:39:24.077Z,8.40
2018-04-01T03:39:55.347Z,8.50
2018-04-01T03:40:26.611Z,8.50
2018-04-01T03:40:57.901Z,8.40
2018-04-01T03:41:29.173Z,8.50
2018-04-01T03:42:00.454Z,8.40
2018-04-01T03:42:31.731Z,8.50
2018-04-01T03:43:03.018Z,8.40
2018-04-01T03:43:34.299Z,8.40
2018-04-01T03:44:05.574Z,8.40
2018-04-01T03:44:36.842Z,8.40
2018-04-01T03:45:08.118Z,8.50
2018-04-01T03:45:39.389Z,8.40
2018-04-01T03:46:10.689Z,8.30
2018-04-01T03:46:41.957Z,8.30
2018-04-01T03:47:13.224Z,8.30
2018-04-01T03:47:44.494Z,8.30
2018-04-01T03:48:15.771Z,8.30
2018-04-01T03:48:47.071Z,8.20
2018-04-01T03:49:18.335Z,8.20
2018-04-01T03:49:49.607Z,8.30
2018-04-01T03:50:20.898Z,8.20
2018-04-01T03:50:52.166Z,8.20
2018-04-01T03:51:23.447Z,8.20
2018-04-01T03:51:54.750Z,8.30
2018-04-01T03:52:26.020Z,8.20
2018-04-01T03:52:57.296Z,8.20
2018-04-01T03:53:28.573Z,8.20
2018-04-01T03:53:59.848Z,8.20
2018-04-01T03:54:31.173Z,8.10
2018-04-01T03:55:02.462Z,8.10
2018-04-01T03:55:33.749Z,8.10
2018-04-01T03:56:05.023Z,8.20
2018-04-01T03:56:36.339Z,8.20
2018-04-01T03:57:07.635Z,8.20
2018-04-01T03:57:38.942Z,8.20
2018-04-01T03:58:10.227Z,8.10
2018-04-01T03:58:41.558Z,8.10
2018-04-01T03:59:12.845Z,8.10
2018-04-01T03:59:44.105Z,8.10
2018-04-01T04:00:15.393Z,8.10
2018-04-01T04:00:46.668Z,8.10
2018-04-01T04:01:17.964Z,8.20
2018-04-01T04:01:49.244Z,8.20
2018-04-01T04:02:20.541Z,8.10
2018-04-01T04:02:51.863Z,8.10
2018-04-01T04:03:23.152Z,8.20
2018-04-01T04:03:54.461Z,8.00
2018-04-01T04:04:25.794Z,8.00
2018-04-01T04:04:57.097Z,7.90
2018-04-01T04:05:28.418Z,7.90
2018-04-01T04:05:59.730Z,7.90
2018-04-01T04:06:31.026Z,7.80
2018-04-01T04:07:02.318Z,7.80
2018-04-01T04:07:33.641Z,7.80
2018-04-01T04:08:04.952Z,7.80
2018-04-01T04:08:36.305Z,7.70
2018-04-01T04:09:07.621Z,7.70
2018-04-01T04:09:38.921Z,7.80
2018-04-01T04:10:10.225Z,7.80
2018-04-01T04:10:41.517Z,7.80
2018-04-01T04:11:12.835Z,7.70
2018-04-01T04:11:44.122Z,7.70
2018-04-01T04:12:15.415Z,7.70
2018-04-01T04:12:46.699Z,7.70
2018-04-01T04:13:17.978Z,7.70
2018-04-01T04:13:49.298Z,7.70
2018-04-01T04:14:20.573Z,7.70
2018-04-01T04:14:51.865Z,7.60
2018-04-01T04:15:23.163Z,7.70
2018-04-01T04:15:54.434Z,7.70
2018-04-01T04:16:25.725Z,7.70
2018-04-01T04:16:56.993Z,7.60
2018-04-01T04:17:28.289Z,7.60
2018-04-01T04:17:59.550Z,7.70
2018-04-01T04:18:30.881Z,7.70
2018-04-01T04:19:02.174Z,7.60
2018-04-01T04:19:33.481Z,7.60
2018-04-01T04:20:04.755Z,7.60
2018-04-01T04:20:36.040Z,7.60
2018-04-01T04:21:07.323Z,7.60
2018-04-01T04:21:44.709Z,7.50
2018-04-01T04:22:15.993Z,7.60
2018-04-01T04:22:47.289Z,7.60
2018-04-01T04:23:18.581Z,7.60
2018-04-01T04:23:49.861Z,7.60
2018-04-01T04:24:21.122Z,7.60
2018-04-01T04:24:52.410Z,7.50
2018-04-01T04:25:23.701Z,7.50
2018-04-01T04:25:54.979Z,7.60
2018-04-01T04:26:26.249Z,7.60
2018-04-01T04:26:57.544Z,7.50
2018-04-01T04:27:28.866Z,7.40
2018-04-01T04:28:00.173Z,7.30
2018-04-01T04:28:31.461Z,7.40
2018-04-01T04:29:02.725Z,7.40
2018-04-01T04:29:34.005Z,7.30
2018-04-01T04:30:05.298Z,7.30
2018-04-01T04:30:36.578Z,7.30
2018-04-01T04:31:07.869Z,7.20
2018-04-01T04:31:39.191Z,7.10
2018-04-01T04:32:10.489Z,7.00
2018-04-01T04:32:41.777Z,6.90
2018-04-01T04:33:13.039Z,6.90
2018-04-01T04:33:44.317Z,7.00
2018-04-01T04:34:15.587Z,7.00
2018-04-01T04:34:46.842Z,7.10
2018-04-01T04:35:18.119Z,7.00
2018-04-01T04:35:49.408Z,7.00
2018-04-01T04:36:20.690Z,7.00
2018-04-01T04:36:51.961Z,7.00
2018-04-01T04:37:23.269Z,7.00
2018-04-01T04:37:54.550Z,6.90
2018-04-01T04:38:25.866Z,7.00
2018-04-01T04:38:57.145Z,7.00
2018-04-01T04:39:28.417Z,6.90
2018-04-01T04:39:59.697Z,6.90
2018-04-01T04:40:30.963Z,6.90
2018-04-01T04:41:02.243Z,6.80
2018-04-01T04:41:33.505Z,6.90
2018-04-01T04:42:04.792Z,6.80
2018-04-01T04:42:36.086Z,6.60
2018-04-01T04:43:07.379Z,6.70
2018-04-01T04:43:38.693Z,6.40
2018-04-01T04:44:09.990Z,6.50
2018-04-01T04:44:41.278Z,6.50
2018-04-01T04:45:12.553Z,6.40
2018-04-01T04:45:43.827Z,6.50
2018-04-01T04:46:15.125Z,6.30
2018-04-01T04:46:46.393Z,6.30
2018-04-01T04:47:17.667Z,6.40
2018-04-01T04:47:48.939Z,6.30
2018-04-01T04:48:20.220Z,6.30
2018-04-01T04:48:51.507Z,6.30
2018-04-01T04:49:22.798Z,7.70
2018-04-01T04:49:54.101Z,7.80
2018-04-01T04:50:25.385Z,7.80
2018-04-01T04:50:56.660Z,8.00
2018-04-01T04:51:27.951Z,8.00
2018-04-01T04:51:59.225Z,8.00
2018-04-01T04:52:30.529Z,8.00
2018-04-01T04:53:01.799Z,8.10
2018-04-01T04:53:33.078Z,8.20
2018-04-01T04:54:04.355Z,8.20
2018-04-01T04:54:35.638Z,8.10
2018-04-01T04:55:06.910Z,8.20
2018-04-01T04:55:38.214Z,8.20
2018-04-01T04:56:09.483Z,7.80
2018-04-01T04:56:40.807Z,7.90
2018-04-01T04:57:12.095Z,7.90
2018-04-01T04:57:43.381Z,7.90
2018-04-01T04:58:14.679Z,7.80
2018-04-01T04:58:45.957Z,7.80
2018-04-01T04:59:17.233Z,7.80
2018-04-01T04:59:48.566Z,7.70
2018-04-01T05:00:19.846Z,7.70
2018-04-01T05:00:51.132Z,7.80
2018-04-01T05:01:22.413Z,7.80
2018-04-01T05:01:53.672Z,7.90
2018-04-01T05:02:24.960Z,7.70
2018-04-01T05:02:56.233Z,7.90
2018-04-01T05:03:27.527Z,7.80
2018-04-01T05:03:58.792Z,7.70
2018-04-01T05:04:30.091Z,7.70
2018-04-01T05:05:01.373Z,7.80
2018-04-01T05:05:32.639Z,7.80
2018-04-01T05:06:03.904Z,7.60
2018-04-01T05:06:35.189Z,7.70
2018-04-01T05:07:06.491Z,7.70
2018-04-01T05:07:37.781Z,7.80
2018-04-01T05:08:09.066Z,7.70
2018-04-01T05:08:40.352Z,7.60
2018-04-01T05:09:11.622Z,7.50
2018-04-01T05:09:42.883Z,7.50
2018-04-01T05:10:14.171Z,7.30
2018-04-01T05:10:45.436Z,7.40
2018-04-01T05:11:16.716Z,7.30
2018-04-01T05:11:48.003Z,7.40
2018-04-01T05:12:19.302Z,7.50
2018-04-01T05:12:50.610Z,7.60
2018-04-01T05:13:21.887Z,7.50
2018-04-01T05:13:53.161Z,7.50
2018-04-01T05:14:24.444Z,7.50
2018-04-01T05:14:55.729Z,7.50
2018-04-01T05:15:26.998Z,7.40
2018-04-01T05:15:58.253Z,7.50
2018-04-01T05:16:29.525Z,7.70
2018-04-01T05:17:00.782Z,7.70
2018-04-01T05:17:32.072Z,7.40
2018-04-01T05:18:03.361Z,7.30
2018-04-01T05:18:34.659Z,7.40
2018-04-01T05:19:05.955Z,7.50
2018-04-01T05:19:37.248Z,7.30
2018-04-01T05:20:08.564Z,7.40
2018-04-01T05:20:39.837Z,7.20
2018-04-01T05:21:11.143Z,7.40
2018-04-01T05:21:42.434Z,7.40
2018-04-01T05:22:13.732Z,7.40
2018-04-01T05:22:45.042Z,7.30
2018-04-01T05:23:16.347Z,7.50
2018-04-01T05:23:47.701Z,7.30
2018-04-01T05:24:19.020Z,7.50
2018-04-01T05:24:50.303Z,7.40
2018-04-01T05:25:21.574Z,7.40
2018-04-01T05:25:52.865Z,7.50
2018-04-01T05:26:24.156Z,7.50
2018-04-01T05:26:55.448Z,7.50
2018-04-01T05:27:26.721Z,7.50
2018-04-01T05:27:58.021Z,7.50
2018-04-01T05:28:29.305Z,7.50
2018-04-01T05:29:00.579Z,7.50
2018-04-01T05:29:31.857Z,7.50
2018-04-01T05:30:03.132Z,7.60
2018-04-01T05:30:34.412Z,7.50
2018-04-01T05:31:05.688Z,7.50
2018-04-01T05:31:36.989Z,7.50
2018-04-01T05:32:08.253Z,7.50
2018-04-01T05:32:39.540Z,7.30
2018-04-01T05:33:10.840Z,7.30
2018-04-01T05:33:42.142Z,7.50
2018-04-01T05:34:13.400Z,7.50
2018-04-01T05:34:44.687Z,7.60
2018-04-01T05:35:15.973Z,7.60
2018-04-01T05:35:47.272Z,7.60
2018-04-01T05:36:18.530Z,7.40
2018-04-01T05:36:49.804Z,7.60
2018-04-01T05:37:21.082Z,7.60
2018-04-01T05:37:52.376Z,7.40
2018-04-01T05:38:23.706Z,7.70
2018-04-01T05:38:54.994Z,7.60
2018-04-01T05:39:26.284Z,7.60
2018-04-01T05:39:57.587Z,7.70
2018-04-01T05:40:28.858Z,7.70
2018-04-01T05:41:00.144Z,7.50
2018-04-01T05:41:31.413Z,7.40
2018-04-01T05:42:02.687Z,7.70
2018-04-01T05:42:33.970Z,7.50
2018-04-01T05:43:05.237Z,7.70
2018-04-01T05:43:36.526Z,7.60
2018-04-01T05:44:07.888Z,7.80
2018-04-01T05:44:39.153Z,7.80
2018-04-01T05:45:10.425Z,7.60
2018-04-01T05:45:41.711Z,7.70
2018-04-01T05:46:12.994Z,7.70
2018-04-01T05:46:44.312Z,7.60
2018-04-01T05:47:15.604Z,7.70
2018-04-01T05:47:46.872Z,7.60
2018-04-01T05:48:18.186Z,7.50
2018-04-01T05:48:49.492Z,7.70
2018-04-01T05:49:20.773Z,7.50
2018-04-01T05:49:52.055Z,7.50
2018-04-01T05:50:23.362Z,7.50
2018-04-01T05:50:54.633Z,7.60
2018-04-01T05:51:25.912Z,7.50
2018-04-01T05:51:57.202Z,7.60
2018-04-01T05:52:28.490Z,7.50
2018-04-01T05:52:59.796Z,7.60
2018-04-01T05:53:31.075Z,7.50
2018-04-01T05:54:02.357Z,7.60
2018-04-01T05:54:33.659Z,7.50
2018-04-01T05:55:04.942Z,7.60
2018-04-01T05:55:36.278Z,7.50
2018-04-01T05:56:07.546Z,7.80
2018-04-01T05:56:38.832Z,7.50
2018-04-01T05:57:10.174Z,7.50
2018-04-01T05:57:41.452Z,7.50
2018-04-01T05:58:12.738Z,7.60
2018-04-01T05:58:44.102Z,7.50
2018-04-01T05:59:15.352Z,7.50
2018-04-01T05:59:46.644Z,7.50
2018-04-01T06:00:17.924Z,7.60
2018-04-01T06:00:49.228Z,7.60
2018-04-01T06:01:20.523Z,7.50
2018-04-01T06:01:51.789Z,7.50
2018-04-01T06:02:23.101Z,7.60
2018-04-01T06:02:54.380Z,7.60
2018-04-01T06:03:25.675Z,7.60
2018-04-01T06:03:56.942Z,7.60
2018-04-01T06:04:28.237Z,7.50
2018-04-01T06:04:59.534Z,7.60
2018-04-01T06:05:30.826Z,7.40
2018-04-01T06:06:02.104Z,7.50
2018-04-01T06:06:33.372Z,7.50
2018-04-01T06:07:04.679Z,7.50
2018-04-01T06:07:35.964Z,7.60
2018-04-01T06:08:07.228Z,7.60
2018-04-01T06:08:38.502Z,7.50
2018-04-01T06:09:09.787Z,7.60
2018-04-01T06:09:41.080Z,7.60
2018-04-01T06:10:12.342Z,7.60
2018-04-01T06:10:43.608Z,7.60
2018-04-01T06:11:14.890Z,7.60
2018-04-01T06:11:46.174Z,7.50
2018-04-01T06:12:17.482Z,7.50
2018-04-01T06:12:48.736Z,7.60
2018-04-01T06:13:20.013Z,7.60
2018-04-01T06:18:41.751Z,7.60
2018-04-01T06:19:13.023Z,7.80
2018-04-01T06:19:44.296Z,7.70
2018-04-01T06:20:15.573Z,7.60
2018-04-01T06:20:46.845Z,7.70
2018-04-01T06:21:18.104Z,7.80
2018-04-01T06:21:49.367Z,7.80
2018-04-01T06:22:20.671Z,7.70
2018-04-01T06:22:51.989Z,7.70
2018-04-01T06:23:23.273Z,7.70
2018-04-01T06:23:54.574Z,7.70
2018-04-01T06:24:25.842Z,7.70
2018-04-01T06:24:57.126Z,7.70
2018-04-01T06:25:28.408Z,7.50
2018-04-01T06:25:59.704Z,7.60
2018-04-01T06:26:30.964Z,7.70
2018-04-01T06:27:02.244Z,7.70
2018-04-01T06:27:33.527Z,7.70
2018-04-01T06:28:04.830Z,7.70
2018-04-01T06:28:36.108Z,7.70
2018-04-01T06:29:07.392Z,7.80
2018-04-01T06:29:38.668Z,7.80
2018-04-01T06:30:09.949Z,7.80
2018-04-01T06:30:41.224Z,7.80
2018-04-01T06:31:12.515Z,7.70
2018-04-01T06:31:43.800Z,7.80
2018-04-01T06:32:15.076Z,7.80
2018-04-01T06:32:46.346Z,7.80
2018-04-01T06:33:17.642Z,7.90
2018-04-01T06:33:48.907Z,7.80
2018-04-01T06:34:20.180Z,7.80
2018-04-01T06:34:51.452Z,7.90
2018-04-01T06:35:22.725Z,7.90
2018-04-01T06:35:54.004Z,7.90
2018-04-01T06:36:25.284Z,7.90
2018-04-01T06:36:56.569Z,7.80
2018-04-01T06:37:27.858Z,7.80
2018-04-01T06:37:59.138Z,7.80
2018-04-01T06:38:30.414Z,8.10
2018-04-01T06:39:01.749Z,7.90
2018-04-01T06:39:33.075Z,7.90
2018-04-01T06:40:04.424Z,7.80
2018-04-01T06:40:35.723Z,7.90
2018-04-01T06:41:06.976Z,7.90
2018-04-01T06:41:38.252Z,7.80
2018-04-01T06:42:09.539Z,8.00
2018-04-01T06:42:40.822Z,7.90
2018-04-01T06:43:12.096Z,7.90
2018-04-01T06:43:43.375Z,7.90
2018-04-01T06:44:14.640Z,8.10
2018-04-01T06:44:45.942Z,7.90
2018-04-01T06:45:17.216Z,8.10
2018-04-01T06:45:48.501Z,7.90
2018-04-01T06:46:19.780Z,8.10
2018-04-01T06:46:51.074Z,8.10
2018-04-01T06:47:22.382Z,8.00
2018-04-01T06:47:53.672Z,7.90
2018-04-01T06:48:24.965Z,8.00
2018-04-01T06:48:56.269Z,8.00
2018-04-01T06:49:27.563Z,8.00
2018-04-01T06:49:58.854Z,8.10
2018-04-01T06:50:30.111Z,8.20
2018-04-01T06:51:01.387Z,8.20
2018-04-01T06:51:32.664Z,8.20
2018-04-01T06:52:03.966Z,8.20
2018-04-01T06:52:35.249Z,8.00
2018-04-01T06:53:06.532Z,8.10
2018-04-01T06:53:37.848Z,8.30
2018-04-01T06:54:09.116Z,8.20
2018-04-01T06:54:40.397Z,8.30
2018-04-01T06:55:11.678Z,8.20
2018-04-01T06:55:42.958Z,8.30
2018-04-01T06:56:14.232Z,8.40
2018-04-01T06:56:45.496Z,8.40
2018-04-01T06:57:16.793Z,8.20
2018-04-01T06:57:48.062Z,8.40
2018-04-01T06:58:19.356Z,8.50
2018-04-01T06:58:50.644Z,8.50
2018-04-01T06:59:21.928Z,8.50
2018-04-01T06:59:53.236Z,8.50
2018-04-01T07:00:24.526Z,8.40
2018-04-01T07:00:55.826Z,8.50
2018-04-01T07:01:27.117Z,8.50
2018-04-01T07:01:58.409Z,8.50
2018-04-01T07:02:29.699Z,8.50
2018-04-01T07:03:01.001Z,8.70
2018-04-01T07:03:32.280Z,8.80
2018-04-01T07:04:03.559Z,8.80
2018-04-01T07:04:34.881Z,8.70